Nearby METAR Reports

 

KMTN - Baltimore/Martin, Maryland, USA
Distance from station: SSE 8mi, 13km
Updated: Tue, 04-Aug-2015 1:12am EDT
Clear
Clear
 Wind from S
Wind: S 6 mph , 9 km/h
Temperature: 81°F , 27°C
Heat Index: 84°F , 29°C
Dew Point: 68°F , 20°C
Humidity: 66%
Barometer: 29.83 inHg , 1010.2 hPa
Clouds: Clear
Visibility: 10 miles , 16 km
2015/08/04 05:12 KMTN 040512Z AUTO 19005KT 10SM CLR 27/20 A2983 RMK AO2 LTG DSNT W
KDMH - Baltimore/Dwntwn, Maryland, USA
Distance from station: SW 12mi, 19km
Updated: Tue, 04-Aug-2015 12:54am EDT

 
Temperature: 81°F , 27°C
Heat Index: 83°F , 28°C
Dew Point: 64°F , 18°C
Humidity: 58%
Barometer: 29.82 inHg , 1009.8 hPa
2015/08/04 04:54 KDMH 040454Z AUTO 27/18 A2982 RMK AO1 SLP099 T02720183 403390217
 
KBWI - Balto/Wash Intl, Maryland, USA
Distance from station: SSW 20mi, 33km
Updated: Tue, 04-Aug-2015 12:54am EDT
Partly cloudy
Partly cloudy
 Wind from SW
Wind: SW 3 mph , 6 km/h
Temperature: 77°F , 25°C
Dew Point: 64°F , 18°C
Humidity: 65%
Barometer: 29.83 inHg , 1010.2 hPa
Clouds: Partly cloudy
Visibility: 10 miles , 16 km
Cloud details: Few Clouds 7000 ft
Partly cloudy 25000 ft
2015/08/04 04:54 KBWI 040454Z 22003KT 10SM FEW070 SCT250 25/18 A2983 RMK AO2 SLP098 FRQ LTGIC DSNT N CB DSNT N MOV E T02500183 403280178
KDMW - Carroll Cnty, Maryland, USA
Distance from station: WNW 30mi, 48km
Updated: Tue, 04-Aug-2015 1:10am EDT
Thunderstorm, Clear
Thunderstorm, Clear
 Wind from WSW
Wind: WSW 7 mph , 11 km/h
Temperature: 75°F , 24°C
Dew Point: 64°F , 18°C
Humidity: 69%
Barometer: 29.86 inHg , 1011.2 hPa
Summary: Thunderstorm
Clouds: Clear
Visibility: 10 miles , 16 km
2015/08/04 05:10 KDMW 040510Z AUTO 24006KT 10SM TS CLR 24/18 A2986 RMK AO2 LTG DSNT N AND NW
 
KNAK - Annapolis/Naval, Maryland, USA
Distance from station: S 30mi, 48km
Updated: Tue, 04-Aug-2015 12:54am EDT
Clear
Clear
 Wind from S
Wind: S 3 mph , 6 km/h
Temperature: 79°F , 26°C
Dew Point: 70°F , 21°C
Humidity: 74%
Barometer: 29.83 inHg , 1010.2 hPa
Clouds: Clear
Visibility: 10 miles , 16 km
2015/08/04 04:54 KNAK 040454Z AUTO 17003KT 10SM CLR 26/21 A2983 RMK AO2 SLP102 T02560206 403110206
KW29 - Stevensville, Maryland, USA
Distance from station: SSE 31mi, 50km
Updated: Tue, 04-Aug-2015 1:11am EDT

 Wind from S
Wind: S 8 mph , 13 km/h
Temperature: 81°F , 27°C
Heat Index: 85°F , 29°C
Dew Point: 70°F , 21°C
Humidity: 70%
Barometer: 29.84 inHg , 1010.5 hPa
Visibility: 10 miles , 16 km
2015/08/04 05:11 KW29 040511Z AUTO 19007KT 10SM 27/21 A2984 RMK AO1 LTG DSNT NW
 
KCGS - College Park, Maryland, USA
Distance from station: SW 38mi, 61km
Updated: Tue, 04-Aug-2015 1:05am EDT
Clear
Clear
 Wind from calm
Wind: Calm
Temperature: 73°F , 23°C
Dew Point: 68°F , 20°C
Humidity: 83%
Barometer: 29.84 inHg , 1010.5 hPa
Clouds: Clear
Visibility: 10 miles , 16 km
2015/08/04 05:05 KCGS 040505Z AUTO 00000KT 10SM CLR 23/20 A2984 RMK AO1
KGAI - Gaithersburg, Maryland, USA
Distance from station: WSW 40mi, 65km
Updated: Tue, 04-Aug-2015 1:15am EDT
Clear
Clear
 Wind from SSW
Wind: SSW 3 mph , 6 km/h
Temperature: 75°F , 24°C
Dew Point: 61°F , 16°C
Humidity: 61%
Barometer: 29.89 inHg , 1012.2 hPa
Clouds: Clear
Visibility: 10 miles , 16 km
2015/08/04 05:15 KGAI 040515Z AUTO 21003KT 10SM CLR 24/16 A2989 RMK AO1
 
KTHV - York, Pennsylvania, USA
Distance from station: NNW 40mi, 65km
Updated: Tue, 04-Aug-2015 12:53am EDT
Few Clouds
Few Clouds
 Wind from SSW
Wind: SSW 5 mph , 7 km/h
Temperature: 72°F , 22°C
Dew Point: 64°F , 18°C
Humidity: 78%
Barometer: 29.83 inHg , 1010.2 hPa
Clouds: Few Clouds
Visibility: 10 miles , 16 km
Cloud details: Few Clouds 8000 ft
2015/08/04 04:53 KTHV 040453Z AUTO 20004KT 10SM FEW080 22/18 A2983 RMK AO2 LTG DSNT E AND SE TSE21 SLP100 T02220183 403060167
KFDK - Frederick, Maryland, USA
Distance from station: W 47mi, 75km
Updated: Tue, 04-Aug-2015 1:10am EDT
Clear
Clear
 Wind from S
Wind: S 3 mph , 6 km/h
Temperature: 72°F , 22°C
Dew Point: 68°F , 20°C
Humidity: 88%
Barometer: 29.86 inHg , 1011.2 hPa
Clouds: Clear
Visibility: 10 miles , 16 km
2015/08/04 05:10 KFDK 040510Z AUTO 17003KT 10SM CLR 22/20 A2986 RMK AO2 LTG DSNT W THRU E
 
KESN - Easton/Newnam, Maryland, USA
Distance from station: SSE 48mi, 78km
Updated: Tue, 04-Aug-2015 1:30am EDT
Clear
Clear
 Wind from SSW
Wind: SSW 7 mph , 11 km/h
Temperature: 81°F , 27°C
Heat Index: 87°F , 31°C
Dew Point: 75°F , 24°C
Humidity: 84%
Barometer: 29.88 inHg , 1011.9 hPa
Clouds: Clear
Visibility: 10 miles , 16 km
2015/08/04 05:30 KESN 040530Z AUTO 20006KT 10SM CLR 27/24 A2988 RMK AO2 T02700238
KDCA - Washington/Natl, Washington D.c., USA
Distance from station: SW 49mi, 79km
Updated: Tue, 04-Aug-2015 12:52am EDT
Haze, Mostly cloudy
Haze, Mostly cloudy
 Wind from SSW
Wind: SSW 6 mph , 9 km/h
Temperature: 81°F , 27°C
Heat Index: 85°F , 29°C
Dew Point: 70°F , 21°C
Humidity: 70%
Barometer: 29.84 inHg , 1010.5 hPa
Summary: Haze
Clouds: Mostly cloudy
Visibility: 5 miles , 8 km
Cloud details: Mostly cloudy 25000 ft
2015/08/04 04:52 KDCA 040452Z 20005KT 5SM HZ BKN250 27/21 A2984 RMK AO2 SLP105 T02720206 403390222
 
KLNS - Lancaster, Pennsylvania, USA
Distance from station: N 49mi, 79km
Updated: Tue, 04-Aug-2015 12:53am EDT
Light rain, Mostly cloudy
Light rain, Mostly cloudy
 Wind from SE
Wind: SE 8 mph , 13 km/h
Temperature: 70°F , 21°C
Dew Point: 66°F , 19°C
Humidity: 88%
Barometer: 29.84 inHg , 1010.5 hPa
Summary: Light rain
Clouds: Mostly cloudy
Visibility: 10 miles , 16 km
Cloud details: Partly cloudy 6500 ft
Mostly cloudy 9000 ft
2015/08/04 04:53 KLNS 040453Z 13007KT 10SM -RA SCT065 BKN090 21/19 A2984 RMK AO2 LTG DSNT ALQDS RAE19B42 SLP100 P0001 T02110194 403110167
KILG - Wilmington, Delaware, USA
Distance from station: ENE 50mi, 81km
Updated: Tue, 04-Aug-2015 12:51am EDT
Clear
Clear
 Wind from SSW
Wind: SSW 6 mph , 9 km/h
Temperature: 75°F , 24°C
Dew Point: 72°F , 22°C
Humidity: 89%
Barometer: 29.83 inHg , 1010.2 hPa
Clouds: Clear
Visibility: 10 miles , 16 km
2015/08/04 04:51 KILG 040451Z AUTO 20005KT 10SM CLR 24/22 A2983 RMK AO2 LTG DSNT N AND NW SLP098 T02440222 403220194